Bennettsville, SC

10:56 PM EDT on July 23, 2014 (GMT -0400)
Marlboro County-Avent (KBBP) Elev 148 ft | 34.62 °N, 79.73 °W | Change Station

Current weather conditions updated 21 minutes ago

Clear
Clear
79 °F
Feels Like 79 °F
N
4
Wind Variable Wind from South

Tomorrow is forecast to be nearly the same temperature as today. Showers and thunderstorms late.

Today
High -- | Low -- °F
--% Chance of Precip.
Yesterday
High -- | Low -- °F
Precip. -- in
6:22 AM 8:27 PM
Waning Crescent, 7% visible
Pressure 29.94 in
Visibility 10.0 miles
Clouds Clear
Dew Point 54 °F
Humidity 42%
Rainfall 0.20 in
Snow Depth Not available.
UV 0 out of 12
Pollen 2.80 out of 12
Ozone Good
PM2.5 Good
Flu Activity Not available.
METAR KBBP 240235Z AUTO 17003KT 10SM CLR 26/12 A2994 RMK AO2

More Conditions Fewer Conditions

Pressure 29.94 in
Visibility 10.0 miles
Clouds Clear
Dew Point 54 °F
Humidity 42%
Rainfall 0.20 in
Snow Depth Not available.
UV 0 out of 12
Pollen 2.80 out of 12
Ozone Good
PM2.5 Good
Flu Activity Not available.
METAR KBBP 240235Z AUTO 17003KT 10SM CLR 26/12 A2994 RMK AO2

More Conditions Fewer Conditions

10-Day Weather Forecast

Almanac

Astronomy

Jul. 23, 2014 Rise Set
Actual Time 6:22 AM EDT 8:27 PM EDT
Civil Twilight 5:54 AM EDT 8:55 PM EDT
Nautical Twilight 5:19 AM EDT 9:30 PM EDT
Astronomical Twilight 4:42 AM EDT 10:07 PM EDT
Moon 3:39 AM EDT (7/23) 5:55 PM EDT (7/23)
Length of Visible Light 15h 01m
Length of Day
14h 05m
Tomorrow will be 1m 22s shorter.
Waning Crescent, 7% of the Moon is Illuminated
Today
Waning Crescent
Jul 26
New
Aug 3
First Quarter
Aug 10
Full
Aug 17
Last Quarter

Today's Extremes

State Highs State Lows

Community

WunderPhotos

Upload Photos

1,736,864 photos uploaded!

Nearby

Air Quality

  Air Quality AQ Index Pollutant
Yesterday Good
PM2.5
Yesterday Good
OZONE
Current Good
PM2.5
Current Good
OZONE
Wednesday Good
OZONE
Thursday Good
OZONE

Snow Depth

Station Depth Elevation
No new snow has been reported.

Earthquake Activity

City Distance Mag. Time & Date
No recent earthquake activity has been reported nearby.
Minimum magnitude displayed is 2.5.

Coastal Water Temperatures

Place Temperature
No Stations Reporting

Nearby Weather Stations

Station Location Temp. Heat Index Dew Point Humidity Wind Precip. Elev Updated Type
Cottingham Creek, Bennettsville, SC 78.7 °F 82 °F 75 °F 89% SSE  at  0.0 mph 0.00 in / hr 143 ft 10:55 PM EDT Rapid Fire
Cheraw, SC 77.2 °F 79 °F 75 °F 92% WNW  at  0.0 mph 0.00 in / hr 110 ft 10:55 PM EDT Normal
Hunts Mill, Chesterfield, SC 75.0 °F 74 °F 72 °F 91% SSE  at  0.0 mph - / hr 164 ft 10:53 PM EDT Normal
Mechanicsville, Darlington, SC 79.3 °F 84 °F 76 °F 90% South  at  3.0 mph 0.00 in / hr 144 ft 10:56 PM EDT Rapid Fire
Deer Run, Hamlet, NC 77.8 °F 80 °F 73 °F 86% SE  at  0.0 mph 0.00 in / hr 400 ft 10:46 PM EDT Normal
RAWS ROCKINGHAM NC, Rockingham, NC 80 °F 84 °F 73 °F 78% SW  at  5 mph 0.00 in / hr 399 ft 9:45 PM EDT MADIS

Show More Stations Show Fewer Stations